createdAt,value
2018-12-04T00:00:28.392Z,7.99
2018-12-04T00:05:30.474Z,8.16
2018-12-04T00:10:33.331Z,8.13
2018-12-04T00:15:35.549Z,8.13
2018-12-04T00:20:37.628Z,7.99
2018-12-04T00:25:39.680Z,7.96
2018-12-04T00:30:41.768Z,8.11
2018-12-04T00:35:43.802Z,8.04
2018-12-04T00:40:45.977Z,8.04
2018-12-04T00:45:48.199Z,8.08
2018-12-04T00:50:50.402Z,7.98
2018-12-04T00:55:52.471Z,7.98
2018-12-04T01:00:54.655Z,7.98
2018-12-04T01:05:56.954Z,7.96
2018-12-04T01:10:59.153Z,7.86
2018-12-04T01:16:01.325Z,7.73
2018-12-04T01:21:03.527Z,7.85
2018-12-04T01:26:05.723Z,8.09
2018-12-04T01:31:07.772Z,7.74
2018-12-04T01:36:09.913Z,7.64
2018-12-04T01:41:11.956Z,7.58
2018-12-04T01:46:15.122Z,7.72
2018-12-04T01:51:17.176Z,7.64
2018-12-04T01:56:19.224Z,7.55
2018-12-04T02:01:21.275Z,7.58
2018-12-04T02:06:23.316Z,7.56
2018-12-04T02:11:25.484Z,7.56
2018-12-04T02:16:28.032Z,7.52
2018-12-04T02:21:30.188Z,7.45
2018-12-04T02:26:32.243Z,7.60
2018-12-04T02:31:34.413Z,7.64
2018-12-04T02:36:36.604Z,7.71
2018-12-04T02:41:38.649Z,7.68
2018-12-04T02:46:40.731Z,7.63
2018-12-04T02:51:42.796Z,7.58
2018-12-04T02:56:45.033Z,7.48
2018-12-04T03:01:47.167Z,7.51
2018-12-04T03:06:49.241Z,7.55
2018-12-04T03:11:51.624Z,7.48
2018-12-04T03:16:53.709Z,7.38
2018-12-04T03:21:55.769Z,7.25
2018-12-04T03:26:57.829Z,7.27
2018-12-04T03:31:59.993Z,7.20
2018-12-04T03:37:02.164Z,7.16
2018-12-04T03:42:04.338Z,7.20
2018-12-04T03:47:06.541Z,7.04
2018-12-04T03:52:08.620Z,6.81
2018-12-04T03:57:10.781Z,6.88
2018-12-04T04:02:12.821Z,6.71
2018-12-04T04:07:15.121Z,6.73
2018-12-04T04:12:17.190Z,6.79
2018-12-04T04:17:19.241Z,6.80
2018-12-04T04:22:21.317Z,6.77
2018-12-04T04:27:23.405Z,6.72
2018-12-04T04:32:25.485Z,6.43
2018-12-04T04:37:27.565Z,6.61
2018-12-04T04:42:29.651Z,6.63
2018-12-04T04:47:31.741Z,6.62
2018-12-04T04:52:33.835Z,6.67
2018-12-04T04:57:35.884Z,6.61
2018-12-04T05:02:38.103Z,6.51
2018-12-04T05:07:40.265Z,6.47
2018-12-04T05:12:42.377Z,6.51
2018-12-04T05:17:44.416Z,6.45
2018-12-04T05:22:46.587Z,6.38
2018-12-04T05:27:48.679Z,6.31
2018-12-04T05:32:50.720Z,6.39
2018-12-04T05:37:52.761Z,6.20
2018-12-04T05:42:54.842Z,6.20
2018-12-04T05:47:56.970Z,6.27
2018-12-04T05:53:41.994Z,6.23
2018-12-04T05:58:44.069Z,5.95
2018-12-04T06:03:46.250Z,6.17
2018-12-04T06:08:48.349Z,6.20
2018-12-04T06:13:50.399Z,6.19
2018-12-04T06:18:52.462Z,6.26
2018-12-04T06:23:54.524Z,6.20
2018-12-04T06:28:56.601Z,6.20
2018-12-04T06:33:58.888Z,6.20
2018-12-04T06:39:01.064Z,6.19
2018-12-04T06:44:03.349Z,6.16
2018-12-04T06:49:05.446Z,6.13
2018-12-04T06:54:07.734Z,6.05
2018-12-04T06:59:09.952Z,6.09
2018-12-04T07:04:12.009Z,6.02
2018-12-04T07:09:14.085Z,5.99
2018-12-04T07:14:16.149Z,6.00
2018-12-04T07:19:18.204Z,6.06
2018-12-04T07:24:20.282Z,6.05
2018-12-04T07:29:22.474Z,6.03
2018-12-04T07:34:24.531Z,5.99
2018-12-04T07:39:26.607Z,5.97
2018-12-04T07:44:28.651Z,5.97
2018-12-04T07:49:30.769Z,5.93
2018-12-04T07:54:33.127Z,6.01
2018-12-04T07:59:35.309Z,6.04
2018-12-04T08:04:37.483Z,5.77
2018-12-04T08:09:39.794Z,5.79
2018-12-04T08:14:41.869Z,5.66
2018-12-04T08:19:43.913Z,5.69
2018-12-04T08:24:46.001Z,5.86
2018-12-04T08:29:48.077Z,5.87
2018-12-04T08:34:50.140Z,5.90
2018-12-04T08:39:52.426Z,5.91
2018-12-04T08:44:54.518Z,6.08
2018-12-04T08:49:56.607Z,6.13
2018-12-04T08:54:58.662Z,6.11
2018-12-04T09:00:00.772Z,6.11
2018-12-04T09:05:03.112Z,6.15
2018-12-04T09:10:05.827Z,6.17
2018-12-04T09:15:08.216Z,6.13
2018-12-04T09:20:10.368Z,6.21
2018-12-04T09:25:12.563Z,6.43
2018-12-04T09:30:14.886Z,6.55
2018-12-04T09:35:17.080Z,6.37
2018-12-04T09:40:19.173Z,6.12
2018-12-04T09:45:21.257Z,6.27
2018-12-04T09:50:23.379Z,6.44
2018-12-04T09:55:25.480Z,6.69
2018-12-04T10:00:27.563Z,6.45
2018-12-04T10:05:29.670Z,6.22
2018-12-04T10:10:31.752Z,6.11
2018-12-04T10:15:33.942Z,6.13
2018-12-04T10:20:36.044Z,6.20
2018-12-04T10:25:42.737Z,5.95
2018-12-04T10:30:49.421Z,5.72
2018-12-04T10:35:51.480Z,5.74
2018-12-04T10:40:53.570Z,6.02
2018-12-04T10:45:55.654Z,6.63
2018-12-04T10:50:57.872Z,7.05
2018-12-04T10:55:59.973Z,7.37
2018-12-04T11:01:08.548Z,7.84
2018-12-04T11:06:10.764Z,8.23
2018-12-04T11:11:12.868Z,8.31
2018-12-04T11:16:15.022Z,8.62
2018-12-04T11:21:17.243Z,8.89
2018-12-04T11:26:19.321Z,9.16
2018-12-04T11:31:21.433Z,9.77
2018-12-04T11:36:23.663Z,9.73
2018-12-04T11:41:25.761Z,9.93
2018-12-04T11:46:27.870Z,9.96
2018-12-04T11:51:29.982Z,10.13
2018-12-04T11:56:32.284Z,10.56
2018-12-04T12:01:34.503Z,10.19
2018-12-04T12:06:36.577Z,10.47
2018-12-04T12:11:38.703Z,10.09
2018-12-04T12:16:40.855Z,9.65
2018-12-04T12:21:43.051Z,9.06
2018-12-04T12:26:45.158Z,8.55
2018-12-04T12:31:47.287Z,8.05
2018-12-04T12:36:49.378Z,7.86
2018-12-04T12:41:51.592Z,7.87
2018-12-04T12:46:54.118Z,7.92
2018-12-04T12:51:56.290Z,8.58
2018-12-04T12:56:58.376Z,8.53
2018-12-04T13:02:00.468Z,8.88
2018-12-04T13:07:02.674Z,8.96
2018-12-04T13:12:05.026Z,9.32
2018-12-04T13:17:07.152Z,9.55
2018-12-04T13:22:09.273Z,9.67
2018-12-04T13:27:11.466Z,9.38
2018-12-04T13:32:13.649Z,8.65
2018-12-04T13:37:15.719Z,8.78
2018-12-04T13:42:17.813Z,8.98
2018-12-04T13:47:20.147Z,8.54
2018-12-04T13:52:22.288Z,8.50
2018-12-04T13:57:24.397Z,8.38
2018-12-04T14:02:26.486Z,8.41
2018-12-04T14:07:28.564Z,8.11
2018-12-04T14:12:30.711Z,7.79
2018-12-04T14:17:33.147Z,7.68
2018-12-04T14:22:35.364Z,7.56
2018-12-04T14:27:37.479Z,7.57
2018-12-04T14:32:39.682Z,7.38
2018-12-04T14:37:41.792Z,7.38
2018-12-04T14:42:44.109Z,7.13
2018-12-04T14:47:46.377Z,7.08
2018-12-04T14:52:48.506Z,7.05
2018-12-04T14:57:50.774Z,7.13
2018-12-04T15:02:53.108Z,6.91
2018-12-04T15:07:55.308Z,6.74
2018-12-04T15:12:57.610Z,6.57
2018-12-04T15:17:59.821Z,6.56
2018-12-04T15:23:02.196Z,6.63
2018-12-04T15:28:04.312Z,6.72
2018-12-04T15:33:06.851Z,6.69
2018-12-04T15:38:09.056Z,6.62
2018-12-04T15:43:11.243Z,6.62
2018-12-04T15:48:13.487Z,6.71
2018-12-04T15:53:15.702Z,6.61
2018-12-04T15:58:17.848Z,6.62
2018-12-04T16:03:19.994Z,6.61
2018-12-04T16:08:22.112Z,6.60
2018-12-04T16:13:24.259Z,6.59
2018-12-04T16:18:26.488Z,6.57
2018-12-04T16:23:29.385Z,6.55
2018-12-04T16:28:31.514Z,6.38
2018-12-04T16:33:33.854Z,6.26
2018-12-04T16:38:35.961Z,6.21
2018-12-04T16:43:38.193Z,6.28
2018-12-04T16:48:40.412Z,6.11
2018-12-04T16:53:42.691Z,6.13
2018-12-04T16:58:44.816Z,6.02
2018-12-04T17:03:46.945Z,6.13
2018-12-04T17:08:49.052Z,6.05
2018-12-04T17:13:51.200Z,6.13
2018-12-04T17:18:53.441Z,5.92
2018-12-04T17:23:55.547Z,5.93
2018-12-04T17:28:57.645Z,5.90
2018-12-04T17:33:59.802Z,5.89
2018-12-04T17:39:02.184Z,5.99
2018-12-04T17:44:04.458Z,6.00
2018-12-04T17:49:06.570Z,5.92
2018-12-04T17:54:08.756Z,5.85
2018-12-04T17:59:10.995Z,5.75
2018-12-04T18:04:13.175Z,5.65
2018-12-04T18:09:15.314Z,5.54
2018-12-04T18:14:17.440Z,6.73
2018-12-04T18:19:19.563Z,6.14
2018-12-04T18:24:21.699Z,5.86
2018-12-04T18:29:23.816Z,5.67
2018-12-04T18:34:25.949Z,5.55
2018-12-04T18:39:28.122Z,5.39
2018-12-04T18:44:30.255Z,5.29
2018-12-04T18:49:32.589Z,5.33
2018-12-04T18:54:34.770Z,5.46
2018-12-04T18:59:36.915Z,5.38
2018-12-04T19:04:39.182Z,5.36
2018-12-04T19:09:42.141Z,5.32
2018-12-04T19:14:44.914Z,5.30
2018-12-04T19:19:47.207Z,5.34
2018-12-04T19:24:49.970Z,5.33
2018-12-04T19:29:54.741Z,5.25
2018-12-04T19:35:00.043Z,5.25
2018-12-04T19:40:07.733Z,5.30
2018-12-04T19:47:46.064Z,5.25
2018-12-04T19:52:51.942Z,5.31
2018-12-04T19:57:58.210Z,5.38
2018-12-04T20:03:01.812Z,4.98
2018-12-04T20:08:07.226Z,5.28
2018-12-04T20:13:11.563Z,5.29
2018-12-04T20:18:16.210Z,5.24
2018-12-04T20:23:21.097Z,5.10
2018-12-04T20:28:26.427Z,4.90
2018-12-04T20:33:32.454Z,4.71
2018-12-04T20:38:37.934Z,4.96
2018-12-04T20:43:43.921Z,4.99
2018-12-04T20:48:50.018Z,5.08
2018-12-04T20:53:56.215Z,5.07
2018-12-04T20:59:02.647Z,5.07
2018-12-04T21:04:07.702Z,4.78
2018-12-04T21:09:13.221Z,4.89
2018-12-04T21:14:17.589Z,5.09
2018-12-04T21:19:19.810Z,5.11
2018-12-04T21:24:23.263Z,5.06
2018-12-04T21:29:31.174Z,4.99
2018-12-04T21:34:39.087Z,4.67
2018-12-04T21:39:44.106Z,4.54
2018-12-04T21:44:52.022Z,4.52
2018-12-04T21:49:56.340Z,4.29
2018-12-04T21:54:58.824Z,4.20
2018-12-04T22:00:01.141Z,4.20
2018-12-04T22:05:04.019Z,4.10
2018-12-04T22:10:06.651Z,4.29
2018-12-04T22:15:08.983Z,4.31
2018-12-04T22:20:11.147Z,4.49
2018-12-04T22:25:13.415Z,4.59
2018-12-04T22:30:15.512Z,4.48
2018-12-04T22:35:17.771Z,4.47
2018-12-04T22:40:19.861Z,4.51
2018-12-04T22:45:25.178Z,4.56
2018-12-04T22:50:27.390Z,4.43
2018-12-04T22:55:29.504Z,4.34
2018-12-04T23:00:39.073Z,4.15
2018-12-04T23:05:41.383Z,4.37
2018-12-04T23:10:43.713Z,4.31
2018-12-04T23:15:45.831Z,4.41
2018-12-04T23:20:47.957Z,4.49
2018-12-04T23:25:50.049Z,4.47
2018-12-04T23:30:52.133Z,4.46
2018-12-04T23:35:54.230Z,4.09
2018-12-04T23:40:56.340Z,4.32
2018-12-04T23:45:58.428Z,4.56
2018-12-04T23:51:00.606Z,4.69
2018-12-04T23:56:02.899Z,4.76
